West Kingston, Rhode Island
Current Conditions -  °F | °C
As of 8:53 AM on Tuesday 21 Oct 2014 (Local Time) from KUUU Reporting Station
Overcast Overcast  
Wind Chill: 16°   Ceiling: 4800
Heat Index: 16°   Visibility: 10mi
Dew Point: 12°   Wind: 3mph
Humidity: 80%   Direction: 100°E
Pressure: 29.95"   Gusts: NA
Location:  41.48°N, 71.55°W
Report Text: KUUU 211253Z AUTO 10003KT 10SM FEW012 BKN048 OVC055 16/12 A2995 RMK AO2 SLP141 T01560122
Loading
Personal Weather Stations






























Interactive Weather Map
Tropical Storm Tracking
New forecast layout! Learn more

10-Day Weather Forecast

Advertisements
Track Severe Weather on mobile